Capitol Logistics 7444

Operating for MZN



KBWI
Baltimore/Washington International Thurgood Marshall Airport
Baltimore, Maryland
KPDX
Portland International Airport
Portland, Oregon

Activity Log

Date Flight Route Aircraft Duration
No Flights Yet

Route Details

Aircraft Information
Primary: Boeing 767-300BDSF
Backup: Boeing 757-200SF
Route Data
Distance: 2046nm
Duration: 5h 09m
Recm'd Route: TERPZ7 JERES J211 YNG CRL J34 HASTE J34 BIL J16 PDT JORAD HHOOD4
Origin Wx: KBWI 141927Z 19004KT 2SM -RA BR SCT025 BKN055 OVC080 15/12 A2999 RMK AO2 SFC VIS 5 P0002 T01500117
Dest. Wx: KPDX 141853Z 32007KT 10SM CLR 16/M04 A3014 RMK AO2 SLP206 T01611044
Notes: